sensor_id;sensor_type;location;lat;lon;timestamp;pressure;altitude;pressure_sealevel;temperature;humidity
36834;BME280;48003;52.084;5.224;2023-03-15T00:00:17;101220.0;;;5.82;81.67
36834;BME280;48003;52.084;5.224;2023-03-15T00:01:53;101220.0;;;5.85;82.11
36834;BME280;48003;52.084;5.224;2023-03-15T00:05:06;101225.0;;;6.03;81.09
36834;BME280;48003;52.084;5.224;2023-03-15T00:06:42;101225.0;;;6.12;81.22
36834;BME280;48003;52.084;5.224;2023-03-15T00:08:19;101230.0;;;6.12;81.44
36834;BME280;48003;52.084;5.224;2023-03-15T00:11:33;101232.0;;;6.13;81.02
36834;BME280;48003;52.084;5.224;2023-03-15T00:13:10;101231.0;;;6.24;80.61
36834;BME280;48003;52.084;5.224;2023-03-15T00:14:47;101234.0;;;6.22;80.37
36834;BME280;48003;52.084;5.224;2023-03-15T00:16:24;101234.0;;;6.23;80.45
36834;BME280;48003;52.084;5.224;2023-03-15T00:19:36;101233.0;;;6.3;80.22
36834;BME280;48003;52.084;5.224;2023-03-15T00:21:13;101236.0;;;6.25;80.55
36834;BME280;48003;52.084;5.224;2023-03-15T00:22:50;101239.0;;;6.26;80.81
36834;BME280;48003;52.084;5.224;2023-03-15T00:26:02;101237.0;;;6.31;80.55
36834;BME280;48003;52.084;5.224;2023-03-15T00:27:39;101230.0;;;6.45;80.33
36834;BME280;48003;52.084;5.224;2023-03-15T00:29:15;101228.0;;;6.08;79.94
36834;BME280;48003;52.084;5.224;2023-03-15T00:32:39;101226.0;;;6.28;80.0
36834;BME280;48003;52.084;5.224;2023-03-15T00:34:15;101226.0;;;6.27;80.17
36834;BME280;48003;52.084;5.224;2023-03-15T00:35:51;101233.0;;;6.37;78.97
36834;BME280;48003;52.084;5.224;2023-03-15T00:37:27;101232.0;;;6.32;79.37
36834;BME280;48003;52.084;5.224;2023-03-15T00:40:40;101236.0;;;6.25;79.39
36834;BME280;48003;52.084;5.224;2023-03-15T00:42:16;101236.0;;;6.29;79.49
36834;BME280;48003;52.084;5.224;2023-03-15T00:43:53;101245.0;;;6.24;80.25
36834;BME280;48003;52.084;5.224;2023-03-15T00:47:05;101246.0;;;6.18;79.94
36834;BME280;48003;52.084;5.224;2023-03-15T00:48:41;101246.0;;;6.17;80.37
36834;BME280;48003;52.084;5.224;2023-03-15T00:50:17;101246.0;;;6.15;80.42
36834;BME280;48003;52.084;5.224;2023-03-15T00:53:31;101245.0;;;6.09;80.44
36834;BME280;48003;52.084;5.224;2023-03-15T00:55:10;101249.0;;;6.19;80.2
36834;BME280;48003;52.084;5.224;2023-03-15T00:56:46;101255.0;;;6.14;80.12
36834;BME280;48003;52.084;5.224;2023-03-15T00:58:23;101257.0;;;6.04;80.3
36834;BME280;48003;52.084;5.224;2023-03-15T01:01:36;101262.0;;;5.97;80.44
36834;BME280;48003;52.084;5.224;2023-03-15T01:03:12;101273.0;;;5.96;80.3
36834;BME280;48003;52.084;5.224;2023-03-15T01:04:48;101272.0;;;6.05;80.42
36834;BME280;48003;52.084;5.224;2023-03-15T01:08:04;101273.0;;;6.13;80.36
36834;BME280;48003;52.084;5.224;2023-03-15T01:09:39;101274.0;;;5.98;80.3
36834;BME280;48003;52.084;5.224;2023-03-15T01:11:18;101281.0;;;6.22;79.91
36834;BME280;48003;52.084;5.224;2023-03-15T01:12:55;101282.0;;;6.08;80.05
36834;BME280;48003;52.084;5.224;2023-03-15T01:16:08;101280.0;;;6.05;79.98
36834;BME280;48003;52.084;5.224;2023-03-15T01:17:46;101281.0;;;5.56;82.07
36834;BME280;48003;52.084;5.224;2023-03-15T01:19:22;101288.0;;;5.49;81.44
36834;BME280;48003;52.084;5.224;2023-03-15T01:22:35;101289.0;;;5.74;80.87
36834;BME280;48003;52.084;5.224;2023-03-15T01:24:14;101292.0;;;5.77;81.22
36834;BME280;48003;52.084;5.224;2023-03-15T01:25:52;101287.0;;;6.06;80.22
36834;BME280;48003;52.084;5.224;2023-03-15T01:29:04;101289.0;;;6.16;79.3
36834;BME280;48003;52.084;5.224;2023-03-15T01:30:47;101293.0;;;6.02;79.63
36834;BME280;48003;52.084;5.224;2023-03-15T01:32:25;101291.0;;;5.98;79.69
36834;BME280;48003;52.084;5.224;2023-03-15T01:34:01;101301.0;;;5.96;80.12
36834;BME280;48003;52.084;5.224;2023-03-15T01:37:13;101297.0;;;6.11;79.78
36834;BME280;48003;52.084;5.224;2023-03-15T01:38:50;101297.0;;;6.1;79.99
36834;BME280;48003;52.084;5.224;2023-03-15T01:40:26;101307.0;;;6.07;80.08
36834;BME280;48003;52.084;5.224;2023-03-15T01:43:38;101305.0;;;6.12;80.02
36834;BME280;48003;52.084;5.224;2023-03-15T01:45:52;101311.0;;;6.01;80.56
36834;BME280;48003;52.084;5.224;2023-03-15T01:47:31;101321.0;;;5.98;80.95
36834;BME280;48003;52.084;5.224;2023-03-15T01:49:10;101320.0;;;6.01;80.47
36834;BME280;48003;52.084;5.224;2023-03-15T01:50:49;101319.0;;;5.93;80.55
36834;BME280;48003;52.084;5.224;2023-03-15T01:54:11;101321.0;;;5.91;80.56
36834;BME280;48003;52.084;5.224;2023-03-15T01:55:53;101326.0;;;6.06;80.5
36834;BME280;48003;52.084;5.224;2023-03-15T01:57:33;101330.0;;;5.98;80.72
36834;BME280;48003;52.084;5.224;2023-03-15T01:59:16;101325.0;;;5.97;80.83
36834;BME280;48003;52.084;5.224;2023-03-15T02:02:31;101324.0;;;5.93;81.05
36834;BME280;48003;52.084;5.224;2023-03-15T02:04:09;101318.0;;;5.98;81.08
36834;BME280;48003;52.084;5.224;2023-03-15T02:05:53;101326.0;;;5.95;80.72
36834;BME280;48003;52.084;5.224;2023-03-15T02:07:32;101332.0;;;6.09;80.45
36834;BME280;48003;52.084;5.224;2023-03-15T02:10:49;101337.0;;;6.12;80.16
36834;BME280;48003;52.084;5.224;2023-03-15T02:12:27;101337.0;;;6.17;79.94
36834;BME280;48003;52.084;5.224;2023-03-15T02:14:06;101336.0;;;6.06;80.11
36834;BME280;48003;52.084;5.224;2023-03-15T02:15:45;101336.0;;;5.97;80.56
36834;BME280;48003;52.084;5.224;2023-03-15T02:19:11;101343.0;;;5.88;80.66
36834;BME280;48003;52.084;5.224;2023-03-15T02:21:00;101343.0;;;5.88;80.67
36834;BME280;48003;52.084;5.224;2023-03-15T02:22:49;101344.0;;;5.81;80.5
36834;BME280;48003;52.084;5.224;2023-03-15T02:24:36;101346.0;;;5.8;80.41
36834;BME280;48003;52.084;5.224;2023-03-15T02:26:20;101350.0;;;5.74;80.55
36834;BME280;48003;52.084;5.224;2023-03-15T02:29:40;101350.0;;;5.83;80.55
36834;BME280;48003;52.084;5.224;2023-03-15T02:31:16;101350.0;;;5.9;80.41
36834;BME280;48003;52.084;5.224;2023-03-15T02:32:54;101356.0;;;5.81;80.41
36834;BME280;48003;52.084;5.224;2023-03-15T02:34:31;101355.0;;;5.93;80.72
36834;BME280;48003;52.084;5.224;2023-03-15T02:37:52;101358.0;;;5.91;80.27
36834;BME280;48003;52.084;5.224;2023-03-15T02:39:28;101363.0;;;5.86;80.55
36834;BME280;48003;52.084;5.224;2023-03-15T02:41:05;101369.0;;;5.8;80.38
36834;BME280;48003;52.084;5.224;2023-03-15T02:44:20;101369.0;;;5.81;80.12
36834;BME280;48003;52.084;5.224;2023-03-15T02:46:00;101372.0;;;5.74;80.55
36834;BME280;48003;52.084;5.224;2023-03-15T02:47:37;101373.0;;;5.75;80.7
36834;BME280;48003;52.084;5.224;2023-03-15T02:49:15;101376.0;;;5.81;80.69
36834;BME280;48003;52.084;5.224;2023-03-15T02:52:29;101386.0;;;5.75;80.25
36834;BME280;48003;52.084;5.224;2023-03-15T02:54:05;101389.0;;;5.72;80.48
36834;BME280;48003;52.084;5.224;2023-03-15T02:55:41;101389.0;;;5.76;81.28
36834;BME280;48003;52.084;5.224;2023-03-15T02:58:55;101394.0;;;5.78;80.69
36834;BME280;48003;52.084;5.224;2023-03-15T03:00:31;101399.0;;;5.78;80.7
36834;BME280;48003;52.084;5.224;2023-03-15T03:02:08;101401.0;;;5.73;80.95
36834;BME280;48003;52.084;5.224;2023-03-15T03:05:22;101407.0;;;5.81;80.58
36834;BME280;48003;52.084;5.224;2023-03-15T03:06:58;101416.0;;;5.79;80.5
36834;BME280;48003;52.084;5.224;2023-03-15T03:08:34;101415.0;;;5.78;80.78
36834;BME280;48003;52.084;5.224;2023-03-15T03:10:14;101416.0;;;5.76;80.8
36834;BME280;48003;52.084;5.224;2023-03-15T03:13:28;101423.0;;;5.76;80.61
36834;BME280;48003;52.084;5.224;2023-03-15T03:15:05;101426.0;;;5.81;80.7
36834;BME280;48003;52.084;5.224;2023-03-15T03:16:42;101430.0;;;5.76;80.83
36834;BME280;48003;52.084;5.224;2023-03-15T03:19:54;101428.0;;;5.67;81.16
36834;BME280;48003;52.084;5.224;2023-03-15T03:21:31;101433.0;;;5.65;81.24
36834;BME280;48003;52.084;5.224;2023-03-15T03:23:07;101434.0;;;5.56;81.49
36834;BME280;48003;52.084;5.224;2023-03-15T03:24:44;101440.0;;;5.49;81.72
36834;BME280;48003;52.084;5.224;2023-03-15T03:27:57;101443.0;;;5.46;81.83
36834;BME280;48003;52.084;5.224;2023-03-15T03:29:33;101446.0;;;5.43;81.92
36834;BME280;48003;52.084;5.224;2023-03-15T03:31:15;101443.0;;;5.47;81.92
36834;BME280;48003;52.084;5.224;2023-03-15T03:34:29;101446.0;;;5.42;81.72
36834;BME280;48003;52.084;5.224;2023-03-15T03:36:06;101451.0;;;5.45;81.8
36834;BME280;48003;52.084;5.224;2023-03-15T03:37:42;101458.0;;;5.4;81.89
36834;BME280;48003;52.084;5.224;2023-03-15T03:39:19;101460.0;;;5.4;82.15
36834;BME280;48003;52.084;5.224;2023-03-15T03:42:31;101464.0;;;5.43;81.87
36834;BME280;48003;52.084;5.224;2023-03-15T03:44:07;101466.0;;;5.37;81.66
36834;BME280;48003;52.084;5.224;2023-03-15T03:45:43;101477.0;;;5.41;81.86
36834;BME280;48003;52.084;5.224;2023-03-15T03:48:55;101480.0;;;5.4;82.05
36834;BME280;48003;52.084;5.224;2023-03-15T03:50:31;101488.0;;;5.4;81.77
36834;BME280;48003;52.084;5.224;2023-03-15T03:52:08;101489.0;;;5.49;81.64
36834;BME280;48003;52.084;5.224;2023-03-15T03:55:20;101484.0;;;5.52;81.12
36834;BME280;48003;52.084;5.224;2023-03-15T03:56:56;101482.0;;;5.49;81.12
36834;BME280;48003;52.084;5.224;2023-03-15T03:58:32;101478.0;;;5.48;81.37
36834;BME280;48003;52.084;5.224;2023-03-15T04:01:48;101480.0;;;5.48;81.61
36834;BME280;48003;52.084;5.224;2023-03-15T04:03:24;101484.0;;;5.39;81.66
36834;BME280;48003;52.084;5.224;2023-03-15T04:05:01;101491.0;;;5.38;81.89
36834;BME280;48003;52.084;5.224;2023-03-15T04:06:37;101493.0;;;5.38;82.34
36834;BME280;48003;52.084;5.224;2023-03-15T04:09:50;101496.0;;;5.38;82.31
36834;BME280;48003;52.084;5.224;2023-03-15T04:11:26;101494.0;;;5.35;81.72
36834;BME280;48003;52.084;5.224;2023-03-15T04:13:02;101494.0;;;5.33;81.91
36834;BME280;48003;52.084;5.224;2023-03-15T04:16:14;101498.0;;;5.36;82.32
36834;BME280;48003;52.084;5.224;2023-03-15T04:17:51;101497.0;;;5.39;82.15
36834;BME280;48003;52.084;5.224;2023-03-15T04:19:28;101507.0;;;5.34;82.44
36834;BME280;48003;52.084;5.224;2023-03-15T04:22:41;101511.0;;;5.35;82.63
36834;BME280;48003;52.084;5.224;2023-03-15T04:24:17;101512.0;;;5.37;82.88
36834;BME280;48003;52.084;5.224;2023-03-15T04:25:53;101521.0;;;5.36;82.95
36834;BME280;48003;52.084;5.224;2023-03-15T04:30:46;101526.0;;;5.33;82.73
36834;BME280;48003;52.084;5.224;2023-03-15T04:32:23;101527.0;;;5.32;82.64
36834;BME280;48003;52.084;5.224;2023-03-15T04:34:00;101530.0;;;5.25;82.44
36834;BME280;48003;52.084;5.224;2023-03-15T04:37:13;101533.0;;;5.29;82.71
36834;BME280;48003;52.084;5.224;2023-03-15T04:38:49;101540.0;;;5.29;82.66
36834;BME280;48003;52.084;5.224;2023-03-15T04:40:26;101543.0;;;5.25;82.74
36834;BME280;48003;52.084;5.224;2023-03-15T04:43:40;101544.0;;;5.27;82.83
36834;BME280;48003;52.084;5.224;2023-03-15T04:45:17;101541.0;;;5.24;82.74
36834;BME280;48003;52.084;5.224;2023-03-15T04:46:54;101547.0;;;5.28;82.46
36834;BME280;48003;52.084;5.224;2023-03-15T04:48:31;101550.0;;;5.25;82.57
36834;BME280;48003;52.084;5.224;2023-03-15T04:51:44;101545.0;;;5.22;82.86
36834;BME280;48003;52.084;5.224;2023-03-15T04:53:20;101553.0;;;5.22;82.79
36834;BME280;48003;52.084;5.224;2023-03-15T04:54:56;101556.0;;;5.22;82.77
36834;BME280;48003;52.084;5.224;2023-03-15T04:58:08;101562.0;;;5.19;83.09
36834;BME280;48003;52.084;5.224;2023-03-15T04:59:45;101564.0;;;5.17;82.97
36834;BME280;48003;52.084;5.224;2023-03-15T05:01:26;101568.0;;;5.11;82.81
36834;BME280;48003;52.084;5.224;2023-03-15T05:03:03;101571.0;;;5.03;83.06
36834;BME280;48003;52.084;5.224;2023-03-15T05:06:15;101577.0;;;5.13;82.99
36834;BME280;48003;52.084;5.224;2023-03-15T05:07:52;101580.0;;;5.19;82.57
36834;BME280;48003;52.084;5.224;2023-03-15T05:09:28;101581.0;;;5.17;82.78
36834;BME280;48003;52.084;5.224;2023-03-15T05:12:41;101587.0;;;5.18;82.86
36834;BME280;48003;52.084;5.224;2023-03-15T05:14:17;101585.0;;;5.16;82.91
36834;BME280;48003;52.084;5.224;2023-03-15T05:15:53;101590.0;;;5.12;83.37
36834;BME280;48003;52.084;5.224;2023-03-15T05:19:05;101588.0;;;5.11;83.31
36834;BME280;48003;52.084;5.224;2023-03-15T05:20:41;101592.0;;;5.07;83.56
36834;BME280;48003;52.084;5.224;2023-03-15T05:22:18;101594.0;;;5.05;83.63
36834;BME280;48003;52.084;5.224;2023-03-15T05:25:30;101598.0;;;5.05;83.74
36834;BME280;48003;52.084;5.224;2023-03-15T05:27:06;101596.0;;;5.07;83.92
36834;BME280;48003;52.084;5.224;2023-03-15T05:28:42;101599.0;;;5.07;83.79
36834;BME280;48003;52.084;5.224;2023-03-15T05:30:18;101601.0;;;5.08;84.1
36834;BME280;48003;52.084;5.224;2023-03-15T05:33:30;101601.0;;;5.11;84.29
36834;BME280;48003;52.084;5.224;2023-03-15T05:35:07;101605.0;;;5.11;84.31
36834;BME280;48003;52.084;5.224;2023-03-15T05:36:44;101611.0;;;5.12;83.63
36834;BME280;48003;52.084;5.224;2023-03-15T05:39:56;101615.0;;;5.15;83.26
36834;BME280;48003;52.084;5.224;2023-03-15T05:41:32;101621.0;;;5.14;83.21
36834;BME280;48003;52.084;5.224;2023-03-15T05:43:09;101622.0;;;5.11;82.79
36834;BME280;48003;52.084;5.224;2023-03-15T05:46:22;101626.0;;;5.11;82.68
36834;BME280;48003;52.084;5.224;2023-03-15T05:47:58;101634.0;;;5.05;82.51
36834;BME280;48003;52.084;5.224;2023-03-15T05:49:35;101634.0;;;5.09;82.19
36834;BME280;48003;52.084;5.224;2023-03-15T05:51:11;101637.0;;;5.14;81.87
36834;BME280;48003;52.084;5.224;2023-03-15T05:54:25;101644.0;;;5.18;81.49
36834;BME280;48003;52.084;5.224;2023-03-15T05:56:01;101651.0;;;5.19;81.16
36834;BME280;48003;52.084;5.224;2023-03-15T05:57:37;101653.0;;;5.2;81.11
36834;BME280;48003;52.084;5.224;2023-03-15T06:00:49;101652.0;;;5.23;80.77
36834;BME280;48003;52.084;5.224;2023-03-15T06:02:26;101655.0;;;5.18;80.53
36834;BME280;48003;52.084;5.224;2023-03-15T06:04:02;101662.0;;;5.15;80.52
36834;BME280;48003;52.084;5.224;2023-03-15T06:07:14;101663.0;;;5.19;80.3
36834;BME280;48003;52.084;5.224;2023-03-15T06:08:50;101668.0;;;5.18;80.2
36834;BME280;48003;52.084;5.224;2023-03-15T06:10:26;101670.0;;;5.22;80.2
36834;BME280;48003;52.084;5.224;2023-03-15T06:12:03;101674.0;;;5.22;80.08
36834;BME280;48003;52.084;5.224;2023-03-15T06:15:16;101674.0;;;5.2;80.06
36834;BME280;48003;52.084;5.224;2023-03-15T06:16:53;101680.0;;;5.19;80.05
36834;BME280;48003;52.084;5.224;2023-03-15T06:18:30;101678.0;;;5.21;80.02
36834;BME280;48003;52.084;5.224;2023-03-15T06:21:43;101680.0;;;5.22;80.91
36834;BME280;48003;52.084;5.224;2023-03-15T06:23:19;101678.0;;;5.2;81.92
36834;BME280;48003;52.084;5.224;2023-03-15T06:24:55;101685.0;;;5.19;82.15
36834;BME280;48003;52.084;5.224;2023-03-15T06:28:07;101686.0;;;5.16;82.13
36834;BME280;48003;52.084;5.224;2023-03-15T06:29:43;101688.0;;;5.13;82.59
36834;BME280;48003;52.084;5.224;2023-03-15T06:31:20;101693.0;;;5.18;81.89
36834;BME280;48003;52.084;5.224;2023-03-15T06:34:32;101699.0;;;5.25;82.14
36834;BME280;48003;52.084;5.224;2023-03-15T06:36:09;101706.0;;;5.25;82.76
36834;BME280;48003;52.084;5.224;2023-03-15T06:37:45;101711.0;;;5.24;83.03
36834;BME280;48003;52.084;5.224;2023-03-15T06:39:22;101714.0;;;5.25;82.87
36834;BME280;48003;52.084;5.224;2023-03-15T06:42:36;101717.0;;;5.29;83.18
36834;BME280;48003;52.084;5.224;2023-03-15T06:44:12;101717.0;;;5.31;82.59
36834;BME280;48003;52.084;5.224;2023-03-15T06:45:49;101723.0;;;5.34;81.22
36834;BME280;48003;52.084;5.224;2023-03-15T06:49:02;101727.0;;;5.35;81.31
36834;BME280;48003;52.084;5.224;2023-03-15T06:50:38;101731.0;;;5.35;80.94
36834;BME280;48003;52.084;5.224;2023-03-15T06:52:15;101736.0;;;5.36;80.39
36834;BME280;48003;52.084;5.224;2023-03-15T06:53:52;101739.0;;;5.36;80.61
36834;BME280;48003;52.084;5.224;2023-03-15T06:57:06;101745.0;;;5.38;81.13
36834;BME280;48003;52.084;5.224;2023-03-15T06:58:42;101743.0;;;5.38;80.74
36834;BME280;48003;52.084;5.224;2023-03-15T07:00:18;101745.0;;;5.41;80.73
36834;BME280;48003;52.084;5.224;2023-03-15T07:03:31;101747.0;;;5.43;79.73
36834;BME280;48003;52.084;5.224;2023-03-15T07:05:08;101756.0;;;5.4;79.84
36834;BME280;48003;52.084;5.224;2023-03-15T07:06:44;101763.0;;;5.41;78.92
36834;BME280;48003;52.084;5.224;2023-03-15T07:10:00;101763.0;;;5.4;79.61
36834;BME280;48003;52.084;5.224;2023-03-15T07:11:36;101764.0;;;5.4;80.16
36834;BME280;48003;52.084;5.224;2023-03-15T07:13:12;101768.0;;;5.41;80.83
36834;BME280;48003;52.084;5.224;2023-03-15T07:14:48;101764.0;;;5.61;79.86
36834;BME280;48003;52.084;5.224;2023-03-15T07:18:00;101764.0;;;5.69;79.59
36834;BME280;48003;52.084;5.224;2023-03-15T07:19:37;101765.0;;;5.89;79.02
36834;BME280;48003;52.084;5.224;2023-03-15T07:21:13;101764.0;;;5.85;78.55
36834;BME280;48003;52.084;5.224;2023-03-15T07:24:25;101769.0;;;5.84;78.66
36834;BME280;48003;52.084;5.224;2023-03-15T07:26:02;101775.0;;;6.0;78.8
36834;BME280;48003;52.084;5.224;2023-03-15T07:27:38;101780.0;;;6.1;78.41
36834;BME280;48003;52.084;5.224;2023-03-15T07:30:52;101785.0;;;6.03;78.81
36834;BME280;48003;52.084;5.224;2023-03-15T07:32:29;101788.0;;;6.02;78.94
36834;BME280;48003;52.084;5.224;2023-03-15T07:34:04;101791.0;;;5.89;79.61
36834;BME280;48003;52.084;5.224;2023-03-15T07:37:16;101793.0;;;6.01;79.33
36834;BME280;48003;52.084;5.224;2023-03-15T07:38:52;101797.0;;;6.04;78.72
36834;BME280;48003;52.084;5.224;2023-03-15T07:40:28;101800.0;;;6.08;78.73
36834;BME280;48003;52.084;5.224;2023-03-15T07:42:04;101807.0;;;6.01;78.98
36834;BME280;48003;52.084;5.224;2023-03-15T07:45:16;101811.0;;;5.97;79.62
36834;BME280;48003;52.084;5.224;2023-03-15T07:46:52;101811.0;;;5.96;79.33
36834;BME280;48003;52.084;5.224;2023-03-15T07:48:28;101816.0;;;5.93;79.8
36834;BME280;48003;52.084;5.224;2023-03-15T07:51:43;101815.0;;;6.03;79.58
36834;BME280;48003;52.084;5.224;2023-03-15T07:53:20;101817.0;;;5.98;78.61
36834;BME280;48003;52.084;5.224;2023-03-15T07:54:56;101821.0;;;6.16;78.19
36834;BME280;48003;52.084;5.224;2023-03-15T07:58:08;101827.0;;;6.11;78.02
36834;BME280;48003;52.084;5.224;2023-03-15T07:59:44;101830.0;;;6.1;78.3
36834;BME280;48003;52.084;5.224;2023-03-15T08:01:20;101837.0;;;6.07;78.94
36834;BME280;48003;52.084;5.224;2023-03-15T08:02:56;101835.0;;;5.97;78.89
36834;BME280;48003;52.084;5.224;2023-03-15T08:06:10;101840.0;;;6.27;77.66
36834;BME280;48003;52.084;5.224;2023-03-15T08:07:46;101842.0;;;6.21;75.87
36834;BME280;48003;52.084;5.224;2023-03-15T08:09:23;101847.0;;;6.15;75.91
36834;BME280;48003;52.084;5.224;2023-03-15T08:12:35;101852.0;;;6.21;76.62
36834;BME280;48003;52.084;5.224;2023-03-15T08:14:11;101852.0;;;6.21;75.19
36834;BME280;48003;52.084;5.224;2023-03-15T08:15:47;101855.0;;;6.26;74.88
36834;BME280;48003;52.084;5.224;2023-03-15T08:19:00;101857.0;;;6.24;75.33
36834;BME280;48003;52.084;5.224;2023-03-15T08:20:36;101855.0;;;6.31;75.61
36834;BME280;48003;52.084;5.224;2023-03-15T08:22:12;101860.0;;;6.38;75.12
36834;BME280;48003;52.084;5.224;2023-03-15T08:25:24;101862.0;;;6.4;74.97
36834;BME280;48003;52.084;5.224;2023-03-15T08:27:02;101865.0;;;6.31;75.37
36834;BME280;48003;52.084;5.224;2023-03-15T08:28:38;101866.0;;;6.33;73.42
36834;BME280;48003;52.084;5.224;2023-03-15T08:30:16;101873.0;;;6.38;72.81
36834;BME280;48003;52.084;5.224;2023-03-15T08:33:29;101871.0;;;6.52;72.41
36834;BME280;48003;52.084;5.224;2023-03-15T08:35:06;101872.0;;;6.52;71.19
36834;BME280;48003;52.084;5.224;2023-03-15T08:36:45;101878.0;;;6.58;70.8
36834;BME280;48003;52.084;5.224;2023-03-15T08:39:57;101881.0;;;6.46;72.27
36834;BME280;48003;52.084;5.224;2023-03-15T08:41:33;101886.0;;;6.67;71.53
36834;BME280;48003;52.084;5.224;2023-03-15T08:43:09;101881.0;;;6.69;72.02
36834;BME280;48003;52.084;5.224;2023-03-15T08:44:46;101884.0;;;6.65;71.33
36834;BME280;48003;52.084;5.224;2023-03-15T08:47:59;101894.0;;;6.73;70.59
36834;BME280;48003;52.084;5.224;2023-03-15T08:49:35;101892.0;;;6.59;71.61
36834;BME280;48003;52.084;5.224;2023-03-15T08:51:11;101889.0;;;6.54;72.66
36834;BME280;48003;52.084;5.224;2023-03-15T08:54:23;101893.0;;;6.61;73.05
36834;BME280;48003;52.084;5.224;2023-03-15T08:56:00;101888.0;;;6.81;70.45
36834;BME280;48003;52.084;5.224;2023-03-15T08:57:37;101896.0;;;7.0;69.39
36834;BME280;48003;52.084;5.224;2023-03-15T09:00:49;101897.0;;;6.84;69.84
36834;BME280;48003;52.084;5.224;2023-03-15T09:02:26;101893.0;;;7.01;68.42
36834;BME280;48003;52.084;5.224;2023-03-15T09:04:03;101897.0;;;6.76;68.94
36834;BME280;48003;52.084;5.224;2023-03-15T09:07:15;101896.0;;;7.05;68.03
36834;BME280;48003;52.084;5.224;2023-03-15T09:08:51;101899.0;;;7.13;68.49
36834;BME280;48003;52.084;5.224;2023-03-15T09:10:27;101905.0;;;7.17;68.55
36834;BME280;48003;52.084;5.224;2023-03-15T09:12:04;101905.0;;;6.92;69.83
36834;BME280;48003;52.084;5.224;2023-03-15T09:15:16;101905.0;;;6.83;69.77
36834;BME280;48003;52.084;5.224;2023-03-15T09:16:52;101901.0;;;7.08;68.97
36834;BME280;48003;52.084;5.224;2023-03-15T09:18:29;101902.0;;;6.97;69.42
36834;BME280;48003;52.084;5.224;2023-03-15T09:21:44;101898.0;;;6.85;71.0
36834;BME280;48003;52.084;5.224;2023-03-15T09:23:21;101890.0;;;6.99;70.38
36834;BME280;48003;52.084;5.224;2023-03-15T09:24:57;101894.0;;;6.64;70.92
36834;BME280;48003;52.084;5.224;2023-03-15T09:28:10;101895.0;;;7.08;70.27
36834;BME280;48003;52.084;5.224;2023-03-15T09:29:46;101893.0;;;6.97;70.2
36834;BME280;48003;52.084;5.224;2023-03-15T09:31:22;101894.0;;;7.19;69.92
36834;BME280;48003;52.084;5.224;2023-03-15T09:32:58;101894.0;;;6.65;70.53
36834;BME280;48003;52.084;5.224;2023-03-15T09:36:11;101895.0;;;7.36;69.12
36834;BME280;48003;52.084;5.224;2023-03-15T09:37:48;101899.0;;;7.07;68.55
36834;BME280;48003;52.084;5.224;2023-03-15T09:39:25;101899.0;;;7.1;68.52
36834;BME280;48003;52.084;5.224;2023-03-15T09:42:44;101908.0;;;7.45;66.66
36834;BME280;48003;52.084;5.224;2023-03-15T09:44:38;101907.0;;;7.64;66.44
36834;BME280;48003;52.084;5.224;2023-03-15T09:46:25;101911.0;;;7.12;67.66
36834;BME280;48003;52.084;5.224;2023-03-15T09:48:07;101905.0;;;7.58;67.16
36834;BME280;48003;52.084;5.224;2023-03-15T09:49:49;101902.0;;;7.87;64.47
36834;BME280;48003;52.084;5.224;2023-03-15T09:53:16;101905.0;;;7.8;64.41
36834;BME280;48003;52.084;5.224;2023-03-15T09:54:57;101906.0;;;7.72;65.31
36834;BME280;48003;52.084;5.224;2023-03-15T09:56:36;101905.0;;;7.78;64.99
36834;BME280;48003;52.084;5.224;2023-03-15T09:58:18;101907.0;;;7.62;65.94
36834;BME280;48003;52.084;5.224;2023-03-15T10:01:37;101905.0;;;8.05;63.76
36834;BME280;48003;52.084;5.224;2023-03-15T10:03:17;101906.0;;;7.72;65.45
36834;BME280;48003;52.084;5.224;2023-03-15T10:05:02;101905.0;;;8.15;63.15
36834;BME280;48003;52.084;5.224;2023-03-15T10:06:42;101905.0;;;7.95;65.13
36834;BME280;48003;52.084;5.224;2023-03-15T10:10:01;101907.0;;;8.14;65.87
36834;BME280;48003;52.084;5.224;2023-03-15T10:11:46;101906.0;;;8.1;65.53
36834;BME280;48003;52.084;5.224;2023-03-15T10:13:36;101895.0;;;7.83;66.02
36834;BME280;48003;52.084;5.224;2023-03-15T10:15:27;101901.0;;;7.84;64.19
36834;BME280;48003;52.084;5.224;2023-03-15T10:17:16;101907.0;;;7.88;62.1
36834;BME280;48003;52.084;5.224;2023-03-15T10:19:04;101907.0;;;8.31;61.13
36834;BME280;48003;52.084;5.224;2023-03-15T10:22:29;101905.0;;;7.92;60.13
36834;BME280;48003;52.084;5.224;2023-03-15T10:24:15;101909.0;;;7.8;61.54
36834;BME280;48003;52.084;5.224;2023-03-15T10:25:53;101912.0;;;7.91;62.99
36834;BME280;48003;52.084;5.224;2023-03-15T10:27:32;101912.0;;;8.18;61.11
36834;BME280;48003;52.084;5.224;2023-03-15T10:30:56;101916.0;;;7.99;60.33
36834;BME280;48003;52.084;5.224;2023-03-15T10:32:37;101909.0;;;8.48;57.9
36834;BME280;48003;52.084;5.224;2023-03-15T10:34:17;101911.0;;;8.3;60.21
36834;BME280;48003;52.084;5.224;2023-03-15T10:35:53;101921.0;;;8.64;57.86
36834;BME280;48003;52.084;5.224;2023-03-15T10:39:08;101930.0;;;8.8;57.77
36834;BME280;48003;52.084;5.224;2023-03-15T10:40:47;101930.0;;;8.64;58.94
36834;BME280;48003;52.084;5.224;2023-03-15T10:42:30;101928.0;;;8.38;58.22
36834;BME280;48003;52.084;5.224;2023-03-15T10:44:11;101931.0;;;8.48;58.11
36834;BME280;48003;52.084;5.224;2023-03-15T10:47:42;101934.0;;;8.67;58.67
36834;BME280;48003;52.084;5.224;2023-03-15T10:49:17;101936.0;;;9.15;57.48
36834;BME280;48003;52.084;5.224;2023-03-15T10:50:54;101939.0;;;9.15;54.82
36834;BME280;48003;52.084;5.224;2023-03-15T10:52:33;101940.0;;;9.09;55.3
36834;BME280;48003;52.084;5.224;2023-03-15T10:55:58;101941.0;;;9.33;57.12
36834;BME280;48003;52.084;5.224;2023-03-15T10:57:38;101949.0;;;9.23;57.22
36834;BME280;48003;52.084;5.224;2023-03-15T10:59:18;101951.0;;;9.27;55.9
36834;BME280;48003;52.084;5.224;2023-03-15T11:01:01;101957.0;;;9.35;56.33
36834;BME280;48003;52.084;5.224;2023-03-15T11:04:25;101958.0;;;9.28;56.16
36834;BME280;48003;52.084;5.224;2023-03-15T11:06:18;101950.0;;;9.08;54.53
36834;BME280;48003;52.084;5.224;2023-03-15T11:07:56;101944.0;;;9.44;54.39
36834;BME280;48003;52.084;5.224;2023-03-15T11:09:38;101949.0;;;9.78;53.36
36834;BME280;48003;52.084;5.224;2023-03-15T11:11:15;101965.0;;;9.36;50.63
36834;BME280;48003;52.084;5.224;2023-03-15T11:14:52;101967.0;;;9.65;51.89
36834;BME280;48003;52.084;5.224;2023-03-15T11:16:32;101970.0;;;9.66;51.52